sensor_id;sensor_type;location;lat;lon;timestamp;P1;durP1;ratioP1;P2;durP2;ratioP2
16878;SDS011;8556;52.218;9.884;2023-01-01T00:01:42;11.98;;;4.68;;
16878;SDS011;8556;52.218;9.884;2023-01-01T00:04:10;10.48;;;4.82;;
16878;SDS011;8556;52.218;9.884;2023-01-01T00:06:39;12.23;;;4.20;;
16878;SDS011;8556;52.218;9.884;2023-01-01T00:09:06;13.00;;;4.30;;
16878;SDS011;8556;52.218;9.884;2023-01-01T00:11:51;10.93;;;4.20;;
16878;SDS011;8556;52.218;9.884;2023-01-01T00:14:17;16.23;;;4.35;;
16878;SDS011;8556;52.218;9.884;2023-01-01T00:16:44;10.38;;;3.75;;
16878;SDS011;8556;52.218;9.884;2023-01-01T00:19:11;12.15;;;3.83;;
16878;SDS011;8556;52.218;9.884;2023-01-01T00:21:39;10.13;;;3.83;;
16878;SDS011;8556;52.218;9.884;2023-01-01T00:24:06;8.82;;;3.42;;
16878;SDS011;8556;52.218;9.884;2023-01-01T00:26:33;12.63;;;3.80;;
16878;SDS011;8556;52.218;9.884;2023-01-01T00:29:00;9.85;;;4.25;;
16878;SDS011;8556;52.218;9.884;2023-01-01T00:31:27;10.43;;;3.80;;
16878;SDS011;8556;52.218;9.884;2023-01-01T00:33:54;10.32;;;3.70;;
16878;SDS011;8556;52.218;9.884;2023-01-01T00:36:22;8.43;;;3.38;;
16878;SDS011;8556;52.218;9.884;2023-01-01T00:38:53;8.23;;;3.97;;
16878;SDS011;8556;52.218;9.884;2023-01-01T00:41:20;9.43;;;3.53;;
16878;SDS011;8556;52.218;9.884;2023-01-01T00:43:47;11.15;;;3.97;;
16878;SDS011;8556;52.218;9.884;2023-01-01T00:46:14;9.88;;;3.33;;
16878;SDS011;8556;52.218;9.884;2023-01-01T00:48:41;10.60;;;3.05;;
16878;SDS011;8556;52.218;9.884;2023-01-01T00:51:08;6.47;;;3.17;;
16878;SDS011;8556;52.218;9.884;2023-01-01T00:53:35;8.23;;;3.40;;
16878;SDS011;8556;52.218;9.884;2023-01-01T00:56:04;12.40;;;4.03;;
16878;SDS011;8556;52.218;9.884;2023-01-01T00:58:31;7.63;;;2.92;;
16878;SDS011;8556;52.218;9.884;2023-01-01T01:00:58;7.65;;;2.80;;
16878;SDS011;8556;52.218;9.884;2023-01-01T01:03:25;6.05;;;2.70;;
16878;SDS011;8556;52.218;9.884;2023-01-01T01:05:56;11.02;;;3.03;;
16878;SDS011;8556;52.218;9.884;2023-01-01T01:08:23;9.57;;;3.15;;
16878;SDS011;8556;52.218;9.884;2023-01-01T01:10:50;8.00;;;3.20;;
16878;SDS011;8556;52.218;9.884;2023-01-01T01:13:19;8.52;;;2.88;;
16878;SDS011;8556;52.218;9.884;2023-01-01T01:15:46;7.82;;;2.97;;
16878;SDS011;8556;52.218;9.884;2023-01-01T01:18:13;8.38;;;3.40;;
16878;SDS011;8556;52.218;9.884;2023-01-01T01:20:40;11.05;;;3.40;;
16878;SDS011;8556;52.218;9.884;2023-01-01T01:23:15;7.93;;;3.53;;
16878;SDS011;8556;52.218;9.884;2023-01-01T01:25:41;9.95;;;3.30;;
16878;SDS011;8556;52.218;9.884;2023-01-01T01:28:08;11.77;;;3.50;;
16878;SDS011;8556;52.218;9.884;2023-01-01T01:30:37;5.07;;;3.15;;
16878;SDS011;8556;52.218;9.884;2023-01-01T01:33:04;9.57;;;3.70;;
16878;SDS011;8556;52.218;9.884;2023-01-01T01:35:31;9.75;;;3.75;;
16878;SDS011;8556;52.218;9.884;2023-01-01T01:37:58;12.95;;;3.83;;
16878;SDS011;8556;52.218;9.884;2023-01-01T01:40:25;8.15;;;3.22;;
16878;SDS011;8556;52.218;9.884;2023-01-01T01:42:52;9.38;;;3.72;;
16878;SDS011;8556;52.218;9.884;2023-01-01T01:45:18;7.00;;;3.00;;
16878;SDS011;8556;52.218;9.884;2023-01-01T01:47:47;10.35;;;3.30;;
16878;SDS011;8556;52.218;9.884;2023-01-01T01:50:18;9.82;;;3.08;;
16878;SDS011;8556;52.218;9.884;2023-01-01T01:52:53;14.27;;;3.97;;
16878;SDS011;8556;52.218;9.884;2023-01-01T01:55:26;9.27;;;3.75;;
16878;SDS011;8556;52.218;9.884;2023-01-01T01:57:55;9.77;;;3.63;;
16878;SDS011;8556;52.218;9.884;2023-01-01T02:00:23;5.40;;;3.17;;
16878;SDS011;8556;52.218;9.884;2023-01-01T02:02:52;7.97;;;3.50;;
16878;SDS011;8556;52.218;9.884;2023-01-01T02:05:21;11.48;;;3.60;;
16878;SDS011;8556;52.218;9.884;2023-01-01T02:07:50;9.80;;;3.33;;
16878;SDS011;8556;52.218;9.884;2023-01-01T02:10:18;9.05;;;3.53;;
16878;SDS011;8556;52.218;9.884;2023-01-01T02:12:46;7.93;;;3.40;;
16878;SDS011;8556;52.218;9.884;2023-01-01T02:15:13;11.90;;;4.63;;
16878;SDS011;8556;52.218;9.884;2023-01-01T02:17:43;9.88;;;3.85;;
16878;SDS011;8556;52.218;9.884;2023-01-01T02:20:21;10.57;;;3.78;;
16878;SDS011;8556;52.218;9.884;2023-01-01T02:23:01;9.18;;;4.05;;
16878;SDS011;8556;52.218;9.884;2023-01-01T02:26:02;10.77;;;4.05;;
16878;SDS011;8556;52.218;9.884;2023-01-01T02:29:04;9.07;;;3.90;;
16878;SDS011;8556;52.218;9.884;2023-01-01T02:31:41;8.52;;;3.92;;
16878;SDS011;8556;52.218;9.884;2023-01-01T02:34:13;9.18;;;4.20;;
16878;SDS011;8556;52.218;9.884;2023-01-01T02:36:43;11.23;;;4.57;;
16878;SDS011;8556;52.218;9.884;2023-01-01T02:39:15;9.93;;;4.22;;
16878;SDS011;8556;52.218;9.884;2023-01-01T02:41:46;12.77;;;4.00;;
16878;SDS011;8556;52.218;9.884;2023-01-01T02:44:17;9.45;;;4.18;;
16878;SDS011;8556;52.218;9.884;2023-01-01T02:46:44;11.25;;;4.30;;
16878;SDS011;8556;52.218;9.884;2023-01-01T02:49:11;11.70;;;4.22;;
16878;SDS011;8556;52.218;9.884;2023-01-01T02:51:41;14.60;;;4.00;;
16878;SDS011;8556;52.218;9.884;2023-01-01T02:54:21;10.93;;;3.70;;
16878;SDS011;8556;52.218;9.884;2023-01-01T02:56:57;6.50;;;3.45;;
16878;SDS011;8556;52.218;9.884;2023-01-01T02:59:32;10.30;;;3.40;;
16878;SDS011;8556;52.218;9.884;2023-01-01T03:02:29;9.60;;;4.03;;
16878;SDS011;8556;52.218;9.884;2023-01-01T03:05:02;6.88;;;3.00;;
16878;SDS011;8556;52.218;9.884;2023-01-01T03:07:35;10.88;;;3.53;;
16878;SDS011;8556;52.218;9.884;2023-01-01T03:10:08;8.98;;;3.25;;
16878;SDS011;8556;52.218;9.884;2023-01-01T03:12:41;12.75;;;3.58;;
16878;SDS011;8556;52.218;9.884;2023-01-01T03:15:17;7.45;;;3.10;;
16878;SDS011;8556;52.218;9.884;2023-01-01T03:17:49;8.07;;;3.20;;
16878;SDS011;8556;52.218;9.884;2023-01-01T03:20:23;9.70;;;3.42;;
16878;SDS011;8556;52.218;9.884;2023-01-01T03:22:55;11.57;;;3.53;;
16878;SDS011;8556;52.218;9.884;2023-01-01T03:25:28;8.43;;;3.92;;
16878;SDS011;8556;52.218;9.884;2023-01-01T03:28:00;6.70;;;3.30;;
16878;SDS011;8556;52.218;9.884;2023-01-01T03:30:31;8.30;;;3.53;;
16878;SDS011;8556;52.218;9.884;2023-01-01T03:33:02;9.93;;;3.17;;
16878;SDS011;8556;52.218;9.884;2023-01-01T03:35:35;7.82;;;3.40;;
16878;SDS011;8556;52.218;9.884;2023-01-01T03:38:06;9.13;;;3.30;;
16878;SDS011;8556;52.218;9.884;2023-01-01T03:40:37;10.45;;;3.00;;
16878;SDS011;8556;52.218;9.884;2023-01-01T03:43:05;7.93;;;3.15;;
16878;SDS011;8556;52.218;9.884;2023-01-01T03:45:39;9.70;;;3.17;;
16878;SDS011;8556;52.218;9.884;2023-01-01T03:48:08;12.52;;;4.07;;
16878;SDS011;8556;52.218;9.884;2023-01-01T03:50:38;8.85;;;3.40;;
16878;SDS011;8556;52.218;9.884;2023-01-01T03:53:14;7.75;;;3.22;;
16878;SDS011;8556;52.218;9.884;2023-01-01T03:55:53;8.82;;;3.15;;
16878;SDS011;8556;52.218;9.884;2023-01-01T03:58:27;9.57;;;3.53;;
16878;SDS011;8556;52.218;9.884;2023-01-01T04:01:03;8.80;;;3.35;;
16878;SDS011;8556;52.218;9.884;2023-01-01T04:03:34;7.00;;;3.13;;
16878;SDS011;8556;52.218;9.884;2023-01-01T04:06:03;6.13;;;2.72;;
16878;SDS011;8556;52.218;9.884;2023-01-01T04:08:31;9.30;;;3.13;;
16878;SDS011;8556;52.218;9.884;2023-01-01T04:10:59;6.28;;;3.10;;
16878;SDS011;8556;52.218;9.884;2023-01-01T04:13:50;9.20;;;3.28;;
16878;SDS011;8556;52.218;9.884;2023-01-01T04:16:18;8.82;;;2.97;;
16878;SDS011;8556;52.218;9.884;2023-01-01T04:18:45;8.90;;;3.47;;
16878;SDS011;8556;52.218;9.884;2023-01-01T04:21:11;8.10;;;3.15;;
16878;SDS011;8556;52.218;9.884;2023-01-01T04:23:38;5.88;;;2.72;;
16878;SDS011;8556;52.218;9.884;2023-01-01T04:26:09;8.35;;;3.00;;
16878;SDS011;8556;52.218;9.884;2023-01-01T04:28:38;8.70;;;3.38;;
16878;SDS011;8556;52.218;9.884;2023-01-01T04:31:05;10.20;;;3.10;;
16878;SDS011;8556;52.218;9.884;2023-01-01T04:33:33;6.85;;;3.00;;
16878;SDS011;8556;52.218;9.884;2023-01-01T04:36:01;8.00;;;3.30;;
16878;SDS011;8556;52.218;9.884;2023-01-01T04:38:30;7.85;;;2.90;;
16878;SDS011;8556;52.218;9.884;2023-01-01T04:40:58;6.60;;;2.97;;
16878;SDS011;8556;52.218;9.884;2023-01-01T04:43:26;6.45;;;2.72;;
16878;SDS011;8556;52.218;9.884;2023-01-01T04:45:54;7.30;;;2.65;;
16878;SDS011;8556;52.218;9.884;2023-01-01T04:48:21;5.63;;;2.80;;
16878;SDS011;8556;52.218;9.884;2023-01-01T04:50:54;4.78;;;2.30;;
16878;SDS011;8556;52.218;9.884;2023-01-01T04:53:21;6.75;;;2.78;;
16878;SDS011;8556;52.218;9.884;2023-01-01T04:55:48;8.35;;;2.90;;
16878;SDS011;8556;52.218;9.884;2023-01-01T04:58:15;8.07;;;2.60;;
16878;SDS011;8556;52.218;9.884;2023-01-01T05:00:42;10.02;;;2.90;;
16878;SDS011;8556;52.218;9.884;2023-01-01T05:03:09;4.55;;;2.88;;
16878;SDS011;8556;52.218;9.884;2023-01-01T05:05:36;5.70;;;2.92;;
16878;SDS011;8556;52.218;9.884;2023-01-01T05:08:04;4.72;;;2.28;;
16878;SDS011;8556;52.218;9.884;2023-01-01T05:10:31;8.70;;;3.05;;
16878;SDS011;8556;52.218;9.884;2023-01-01T05:12:57;12.60;;;2.70;;
16878;SDS011;8556;52.218;9.884;2023-01-01T05:15:24;6.18;;;2.40;;
16878;SDS011;8556;52.218;9.884;2023-01-01T05:17:52;6.32;;;2.58;;
16878;SDS011;8556;52.218;9.884;2023-01-01T05:20:19;5.55;;;2.65;;
16878;SDS011;8556;52.218;9.884;2023-01-01T05:22:46;5.75;;;2.25;;
16878;SDS011;8556;52.218;9.884;2023-01-01T05:25:14;5.15;;;2.42;;
16878;SDS011;8556;52.218;9.884;2023-01-01T05:27:41;4.20;;;2.35;;
16878;SDS011;8556;52.218;9.884;2023-01-01T05:30:08;4.13;;;2.67;;
16878;SDS011;8556;52.218;9.884;2023-01-01T05:32:36;9.27;;;3.03;;
16878;SDS011;8556;52.218;9.884;2023-01-01T05:35:03;5.57;;;2.53;;
16878;SDS011;8556;52.218;9.884;2023-01-01T05:37:30;3.25;;;2.58;;
16878;SDS011;8556;52.218;9.884;2023-01-01T05:39:57;4.93;;;2.33;;
16878;SDS011;8556;52.218;9.884;2023-01-01T05:42:25;4.03;;;2.42;;
16878;SDS011;8556;52.218;9.884;2023-01-01T05:44:52;5.00;;;2.47;;
16878;SDS011;8556;52.218;9.884;2023-01-01T05:47:19;6.20;;;2.72;;
16878;SDS011;8556;52.218;9.884;2023-01-01T05:49:46;7.80;;;2.60;;
16878;SDS011;8556;52.218;9.884;2023-01-01T05:52:13;4.10;;;2.28;;
16878;SDS011;8556;52.218;9.884;2023-01-01T05:54:40;10.20;;;2.65;;
16878;SDS011;8556;52.218;9.884;2023-01-01T05:57:06;6.22;;;2.42;;
16878;SDS011;8556;52.218;9.884;2023-01-01T05:59:35;3.78;;;2.08;;
16878;SDS011;8556;52.218;9.884;2023-01-01T06:02:02;4.30;;;2.10;;
16878;SDS011;8556;52.218;9.884;2023-01-01T06:04:28;8.00;;;2.40;;
16878;SDS011;8556;52.218;9.884;2023-01-01T06:06:55;6.53;;;2.35;;
16878;SDS011;8556;52.218;9.884;2023-01-01T06:09:22;5.32;;;2.20;;
16878;SDS011;8556;52.218;9.884;2023-01-01T06:11:49;5.57;;;2.13;;
16878;SDS011;8556;52.218;9.884;2023-01-01T06:14:16;3.20;;;2.03;;
16878;SDS011;8556;52.218;9.884;2023-01-01T06:16:45;4.35;;;2.10;;
16878;SDS011;8556;52.218;9.884;2023-01-01T06:19:12;5.07;;;2.28;;
16878;SDS011;8556;52.218;9.884;2023-01-01T06:21:39;11.23;;;2.55;;
16878;SDS011;8556;52.218;9.884;2023-01-01T06:24:06;4.78;;;2.30;;
16878;SDS011;8556;52.218;9.884;2023-01-01T06:26:34;5.78;;;2.88;;
16878;SDS011;8556;52.218;9.884;2023-01-01T06:29:01;6.70;;;2.50;;
16878;SDS011;8556;52.218;9.884;2023-01-01T06:31:29;6.70;;;2.70;;
16878;SDS011;8556;52.218;9.884;2023-01-01T06:33:57;7.43;;;2.47;;
16878;SDS011;8556;52.218;9.884;2023-01-01T06:36:24;5.20;;;2.50;;
16878;SDS011;8556;52.218;9.884;2023-01-01T06:38:53;3.08;;;2.00;;
16878;SDS011;8556;52.218;9.884;2023-01-01T06:41:23;5.28;;;1.95;;
16878;SDS011;8556;52.218;9.884;2023-01-01T06:43:51;3.40;;;2.07;;
16878;SDS011;8556;52.218;9.884;2023-01-01T06:46:20;4.90;;;2.47;;
16878;SDS011;8556;52.218;9.884;2023-01-01T06:48:49;3.97;;;2.20;;
16878;SDS011;8556;52.218;9.884;2023-01-01T06:51:20;4.77;;;2.00;;
16878;SDS011;8556;52.218;9.884;2023-01-01T06:53:49;3.43;;;2.00;;
16878;SDS011;8556;52.218;9.884;2023-01-01T06:56:17;5.07;;;2.10;;
16878;SDS011;8556;52.218;9.884;2023-01-01T06:58:44;6.38;;;2.42;;
16878;SDS011;8556;52.218;9.884;2023-01-01T07:01:12;4.90;;;1.95;;
16878;SDS011;8556;52.218;9.884;2023-01-01T07:03:41;4.30;;;1.90;;
16878;SDS011;8556;52.218;9.884;2023-01-01T07:06:10;4.23;;;1.83;;
16878;SDS011;8556;52.218;9.884;2023-01-01T07:08:38;3.83;;;2.13;;
16878;SDS011;8556;52.218;9.884;2023-01-01T07:11:05;4.22;;;2.20;;
16878;SDS011;8556;52.218;9.884;2023-01-01T07:13:32;4.93;;;2.03;;
16878;SDS011;8556;52.218;9.884;2023-01-01T07:15:59;5.00;;;2.20;;
16878;SDS011;8556;52.218;9.884;2023-01-01T07:18:26;4.43;;;2.17;;
16878;SDS011;8556;52.218;9.884;2023-01-01T07:20:54;4.27;;;2.00;;
16878;SDS011;8556;52.218;9.884;2023-01-01T07:23:23;3.47;;;1.90;;
16878;SDS011;8556;52.218;9.884;2023-01-01T07:25:53;5.50;;;2.67;;
16878;SDS011;8556;52.218;9.884;2023-01-01T07:28:21;2.23;;;1.60;;
16878;SDS011;8556;52.218;9.884;2023-01-01T07:30:49;5.10;;;2.00;;
16878;SDS011;8556;52.218;9.884;2023-01-01T07:33:18;7.07;;;2.03;;
16878;SDS011;8556;52.218;9.884;2023-01-01T07:35:47;5.37;;;2.30;;
16878;SDS011;8556;52.218;9.884;2023-01-01T07:38:14;2.85;;;1.83;;
16878;SDS011;8556;52.218;9.884;2023-01-01T07:40:41;3.97;;;1.92;;
16878;SDS011;8556;52.218;9.884;2023-01-01T07:43:10;5.17;;;2.50;;
16878;SDS011;8556;52.218;9.884;2023-01-01T07:45:38;6.07;;;2.30;;
16878;SDS011;8556;52.218;9.884;2023-01-01T07:48:05;7.70;;;2.42;;
16878;SDS011;8556;52.218;9.884;2023-01-01T07:50:37;5.23;;;2.30;;
16878;SDS011;8556;52.218;9.884;2023-01-01T07:53:04;3.70;;;2.17;;
16878;SDS011;8556;52.218;9.884;2023-01-01T07:55:31;4.00;;;2.20;;
16878;SDS011;8556;52.218;9.884;2023-01-01T07:57:59;3.63;;;2.10;;
16878;SDS011;8556;52.218;9.884;2023-01-01T08:00:28;5.00;;;2.20;;
16878;SDS011;8556;52.218;9.884;2023-01-01T08:02:55;6.03;;;2.17;;
16878;SDS011;8556;52.218;9.884;2023-01-01T08:05:22;3.75;;;2.20;;
16878;SDS011;8556;52.218;9.884;2023-01-01T08:07:49;3.17;;;2.30;;
16878;SDS011;8556;52.218;9.884;2023-01-01T08:10:17;3.35;;;1.85;;
16878;SDS011;8556;52.218;9.884;2023-01-01T08:12:45;6.00;;;2.00;;
16878;SDS011;8556;52.218;9.884;2023-01-01T08:15:13;2.65;;;2.13;;
16878;SDS011;8556;52.218;9.884;2023-01-01T08:17:42;6.23;;;2.10;;
16878;SDS011;8556;52.218;9.884;2023-01-01T08:20:09;4.40;;;2.00;;
16878;SDS011;8556;52.218;9.884;2023-01-01T08:22:36;7.20;;;2.07;;
16878;SDS011;8556;52.218;9.884;2023-01-01T08:25:03;3.00;;;2.10;;
16878;SDS011;8556;52.218;9.884;2023-01-01T08:27:30;4.77;;;2.20;;
16878;SDS011;8556;52.218;9.884;2023-01-01T08:29:57;3.97;;;2.00;;
16878;SDS011;8556;52.218;9.884;2023-01-01T08:32:24;5.47;;;2.13;;
16878;SDS011;8556;52.218;9.884;2023-01-01T08:34:53;4.72;;;2.20;;
16878;SDS011;8556;52.218;9.884;2023-01-01T08:37:20;6.18;;;2.67;;
16878;SDS011;8556;52.218;9.884;2023-01-01T08:39:48;8.13;;;2.97;;
16878;SDS011;8556;52.218;9.884;2023-01-01T08:42:15;4.22;;;2.60;;
16878;SDS011;8556;52.218;9.884;2023-01-01T08:44:42;4.25;;;2.42;;
16878;SDS011;8556;52.218;9.884;2023-01-01T08:47:15;4.68;;;2.20;;
16878;SDS011;8556;52.218;9.884;2023-01-01T08:49:43;6.83;;;2.73;;
16878;SDS011;8556;52.218;9.884;2023-01-01T08:52:12;4.35;;;2.03;;
16878;SDS011;8556;52.218;9.884;2023-01-01T08:54:39;6.07;;;2.40;;
16878;SDS011;8556;52.218;9.884;2023-01-01T08:57:06;6.07;;;2.20;;
16878;SDS011;8556;52.218;9.884;2023-01-01T08:59:32;5.30;;;2.60;;
16878;SDS011;8556;52.218;9.884;2023-01-01T09:02:00;7.13;;;2.50;;
16878;SDS011;8556;52.218;9.884;2023-01-01T09:04:27;5.90;;;2.83;;
16878;SDS011;8556;52.218;9.884;2023-01-01T09:06:54;4.43;;;2.07;;
16878;SDS011;8556;52.218;9.884;2023-01-01T09:09:23;3.57;;;2.27;;
16878;SDS011;8556;52.218;9.884;2023-01-01T09:11:50;4.07;;;2.42;;
16878;SDS011;8556;52.218;9.884;2023-01-01T09:14:19;5.50;;;2.03;;
16878;SDS011;8556;52.218;9.884;2023-01-01T09:16:45;2.80;;;1.93;;
16878;SDS011;8556;52.218;9.884;2023-01-01T09:19:13;3.00;;;1.70;;
16878;SDS011;8556;52.218;9.884;2023-01-01T09:21:40;4.82;;;1.67;;
16878;SDS011;8556;52.218;9.884;2023-01-01T09:24:07;3.55;;;1.73;;
16878;SDS011;8556;52.218;9.884;2023-01-01T09:26:35;3.78;;;1.40;;
16878;SDS011;8556;52.218;9.884;2023-01-01T09:29:02;3.35;;;1.77;;
16878;SDS011;8556;52.218;9.884;2023-01-01T09:31:29;5.25;;;1.75;;
16878;SDS011;8556;52.218;9.884;2023-01-01T09:33:56;3.28;;;1.83;;
16878;SDS011;8556;52.218;9.884;2023-01-01T09:36:26;3.90;;;1.50;;
16878;SDS011;8556;52.218;9.884;2023-01-01T09:38:54;6.63;;;1.70;;
16878;SDS011;8556;52.218;9.884;2023-01-01T09:41:24;3.13;;;1.80;;
16878;SDS011;8556;52.218;9.884;2023-01-01T09:44:00;4.82;;;1.88;;
16878;SDS011;8556;52.218;9.884;2023-01-01T09:46:33;4.32;;;1.38;;
16878;SDS011;8556;52.218;9.884;2023-01-01T09:49:01;2.30;;;1.42;;
16878;SDS011;8556;52.218;9.884;2023-01-01T09:51:32;2.53;;;1.67;;
16878;SDS011;8556;52.218;9.884;2023-01-01T09:54:04;10.40;;;5.30;;
16878;SDS011;8556;52.218;9.884;2023-01-01T09:56:36;2.83;;;1.90;;
16878;SDS011;8556;52.218;9.884;2023-01-01T09:59:07;3.17;;;1.60;;
16878;SDS011;8556;52.218;9.884;2023-01-01T10:01:38;5.03;;;1.98;;
16878;SDS011;8556;52.218;9.884;2023-01-01T10:04:17;3.20;;;1.50;;
16878;SDS011;8556;52.218;9.884;2023-01-01T10:06:56;3.77;;;1.60;;
16878;SDS011;8556;52.218;9.884;2023-01-01T10:09:30;4.20;;;1.90;;
16878;SDS011;8556;52.218;9.884;2023-01-01T10:12:02;6.15;;;1.63;;
16878;SDS011;8556;52.218;9.884;2023-01-01T10:14:38;3.97;;;1.90;;
16878;SDS011;8556;52.218;9.884;2023-01-01T10:17:09;3.95;;;1.67;;
16878;SDS011;8556;52.218;9.884;2023-01-01T10:19:42;3.47;;;1.83;;
16878;SDS011;8556;52.218;9.884;2023-01-01T10:22:14;4.83;;;2.00;;
16878;SDS011;8556;52.218;9.884;2023-01-01T10:24:44;6.53;;;1.80;;
16878;SDS011;8556;52.218;9.884;2023-01-01T10:27:21;4.07;;;2.13;;
16878;SDS011;8556;52.218;9.884;2023-01-01T10:29:54;2.50;;;1.80;;
16878;SDS011;8556;52.218;9.884;2023-01-01T10:32:24;6.83;;;2.37;;
16878;SDS011;8556;52.218;9.884;2023-01-01T10:34:54;2.87;;;1.47;;
16878;SDS011;8556;52.218;9.884;2023-01-01T10:37:22;4.33;;;1.93;;
16878;SDS011;8556;52.218;9.884;2023-01-01T10:39:50;5.03;;;2.20;;
16878;SDS011;8556;52.218;9.884;2023-01-01T10:42:17;4.30;;;2.10;;
16878;SDS011;8556;52.218;9.884;2023-01-01T10:44:44;3.87;;;2.00;;
16878;SDS011;8556;52.218;9.884;2023-01-01T10:47:22;3.60;;;1.97;;
16878;SDS011;8556;52.218;9.884;2023-01-01T10:49:54;3.30;;;1.77;;
16878;SDS011;8556;52.218;9.884;2023-01-01T10:52:29;4.40;;;1.97;;
16878;SDS011;8556;52.218;9.884;2023-01-01T10:55:01;4.40;;;1.70;;
16878;SDS011;8556;52.218;9.884;2023-01-01T10:57:30;4.90;;;2.10;;
16878;SDS011;8556;52.218;9.884;2023-01-01T11:00:08;5.63;;;1.77;;
16878;SDS011;8556;52.218;9.884;2023-01-01T11:05:46;7.33;;;3.57;;
16878;SDS011;8556;52.218;9.884;2023-01-01T11:08:36;6.23;;;2.33;;
16878;SDS011;8556;52.218;9.884;2023-01-01T11:11:05;4.13;;;2.17;;
16878;SDS011;8556;52.218;9.884;2023-01-01T11:13:32;5.53;;;2.33;;
16878;SDS011;8556;52.218;9.884;2023-01-01T11:15:59;6.77;;;1.97;;
16878;SDS011;8556;52.218;9.884;2023-01-01T11:18:27;5.63;;;2.50;;
16878;SDS011;8556;52.218;9.884;2023-01-01T11:21:01;4.37;;;2.27;;
16878;SDS011;8556;52.218;9.884;2023-01-01T11:23:31;5.53;;;2.53;;
16878;SDS011;8556;52.218;9.884;2023-01-01T11:26:00;4.17;;;2.03;;
16878;SDS011;8556;52.218;9.884;2023-01-01T11:28:30;2.67;;;1.87;;
16878;SDS011;8556;52.218;9.884;2023-01-01T11:31:00;5.87;;;2.00;;
16878;SDS011;8556;52.218;9.884;2023-01-01T11:33:30;3.63;;;2.00;;
16878;SDS011;8556;52.218;9.884;2023-01-01T11:36:02;7.20;;;2.03;;
16878;SDS011;8556;52.218;9.884;2023-01-01T11:38:31;7.77;;;2.53;;
16878;SDS011;8556;52.218;9.884;2023-01-01T11:41:01;4.27;;;2.00;;
16878;SDS011;8556;52.218;9.884;2023-01-01T11:43:30;3.10;;;1.90;;
16878;SDS011;8556;52.218;9.884;2023-01-01T11:46:05;2.77;;;1.90;;
16878;SDS011;8556;52.218;9.884;2023-01-01T11:48:34;3.33;;;1.90;;
16878;SDS011;8556;52.218;9.884;2023-01-01T11:51:07;5.37;;;2.50;;
16878;SDS011;8556;52.218;9.884;2023-01-01T11:53:37;4.00;;;2.27;;
16878;SDS011;8556;52.218;9.884;2023-01-01T11:56:07;4.77;;;2.60;;
16878;SDS011;8556;52.218;9.884;2023-01-01T11:58:39;6.00;;;2.27;;
16878;SDS011;8556;52.218;9.884;2023-01-01T12:01:12;1.97;;;1.70;;
16878;SDS011;8556;52.218;9.884;2023-01-01T12:03:46;4.07;;;1.70;;
16878;SDS011;8556;52.218;9.884;2023-01-01T12:06:21;4.20;;;1.80;;
16878;SDS011;8556;52.218;9.884;2023-01-01T12:08:53;7.57;;;3.30;;
16878;SDS011;8556;52.218;9.884;2023-01-01T12:11:28;4.07;;;2.30;;
16878;SDS011;8556;52.218;9.884;2023-01-01T12:14:01;4.17;;;1.70;;
16878;SDS011;8556;52.218;9.884;2023-01-01T12:16:40;7.13;;;3.67;;
16878;SDS011;8556;52.218;9.884;2023-01-01T12:19:17;5.93;;;4.37;;
16878;SDS011;8556;52.218;9.884;2023-01-01T12:21:50;4.93;;;3.10;;
16878;SDS011;8556;52.218;9.884;2023-01-01T12:24:23;4.73;;;2.60;;
16878;SDS011;8556;52.218;9.884;2023-01-01T12:27:00;7.40;;;3.47;;
16878;SDS011;8556;52.218;9.884;2023-01-01T12:29:41;3.57;;;2.40;;
16878;SDS011;8556;52.218;9.884;2023-01-01T12:32:23;3.43;;;1.63;;
16878;SDS011;8556;52.218;9.884;2023-01-01T12:34:59;1.93;;;1.20;;
16878;SDS011;8556;52.218;9.884;2023-01-01T12:37:40;2.37;;;1.30;;
16878;SDS011;8556;52.218;9.884;2023-01-01T12:40:29;5.47;;;1.10;;
16878;SDS011;8556;52.218;9.884;2023-01-01T12:43:04;3.17;;;1.03;;
16878;SDS011;8556;52.218;9.884;2023-01-01T12:45:45;4.17;;;1.57;;
16878;SDS011;8556;52.218;9.884;2023-01-01T12:48:31;3.00;;;1.40;;
16878;SDS011;8556;52.218;9.884;2023-01-01T12:51:04;2.47;;;1.57;;
16878;SDS011;8556;52.218;9.884;2023-01-01T12:53:45;3.20;;;2.00;;
16878;SDS011;8556;52.218;9.884;2023-01-01T12:56:20;3.43;;;1.83;;
16878;SDS011;8556;52.218;9.884;2023-01-01T12:58:56;4.00;;;1.70;;
16878;SDS011;8556;52.218;9.884;2023-01-01T13:01:27;2.27;;;1.60;;
16878;SDS011;8556;52.218;9.884;2023-01-01T13:03:57;2.67;;;1.40;;
16878;SDS011;8556;52.218;9.884;2023-01-01T13:06:28;3.27;;;1.87;;
16878;SDS011;8556;52.218;9.884;2023-01-01T13:09:01;4.27;;;1.70;;
16878;SDS011;8556;52.218;9.884;2023-01-01T13:11:31;3.33;;;2.00;;
16878;SDS011;8556;52.218;9.884;2023-01-01T13:14:00;3.10;;;1.60;;
16878;SDS011;8556;52.218;9.884;2023-01-01T13:16:31;5.10;;;1.80;;
16878;SDS011;8556;52.218;9.884;2023-01-01T13:19:02;3.00;;;1.70;;
16878;SDS011;8556;52.218;9.884;2023-01-01T13:21:30;3.73;;;2.07;;
16878;SDS011;8556;52.218;9.884;2023-01-01T13:24:01;4.03;;;2.40;;
16878;SDS011;8556;52.218;9.884;2023-01-01T13:26:39;5.33;;;2.03;;
16878;SDS011;8556;52.218;9.884;2023-01-01T13:32:13;2.80;;;1.90;;
16878;SDS011;8556;52.218;9.884;2023-01-01T13:37:42;7.07;;;3.40;;
16878;SDS011;8556;52.218;9.884;2023-01-01T13:40:31;5.83;;;3.17;;
16878;SDS011;8556;52.218;9.884;2023-01-01T13:43:20;2.23;;;1.97;;
16878;SDS011;8556;52.218;9.884;2023-01-01T13:45:53;8.37;;;2.07;;
16878;SDS011;8556;52.218;9.884;2023-01-01T13:51:29;3.80;;;2.00;;
16878;SDS011;8556;52.218;9.884;2023-01-01T13:54:32;2.50;;;1.90;;
16878;SDS011;8556;52.218;9.884;2023-01-01T13:57:29;6.40;;;2.40;;
16878;SDS011;8556;52.218;9.884;2023-01-01T14:00:15;6.57;;;1.80;;
16878;SDS011;8556;52.218;9.884;2023-01-01T14:02:45;6.87;;;1.97;;
16878;SDS011;8556;52.218;9.884;2023-01-01T14:05:15;3.07;;;1.90;;
16878;SDS011;8556;52.218;9.884;2023-01-01T14:07:46;4.80;;;2.10;;
16878;SDS011;8556;52.218;9.884;2023-01-01T14:10:15;3.87;;;2.33;;
16878;SDS011;8556;52.218;9.884;2023-01-01T14:12:53;8.53;;;2.90;;
16878;SDS011;8556;52.218;9.884;2023-01-01T14:15:24;4.13;;;2.07;;
16878;SDS011;8556;52.218;9.884;2023-01-01T14:17:53;4.07;;;2.33;;
16878;SDS011;8556;52.218;9.884;2023-01-01T14:20:25;4.23;;;2.07;;
16878;SDS011;8556;52.218;9.884;2023-01-01T14:22:56;5.40;;;2.43;;
16878;SDS011;8556;52.218;9.884;2023-01-01T14:25:28;5.60;;;2.70;;
16878;SDS011;8556;52.218;9.884;2023-01-01T14:27:57;6.70;;;2.70;;
16878;SDS011;8556;52.218;9.884;2023-01-01T14:30:24;5.17;;;2.40;;
16878;SDS011;8556;52.218;9.884;2023-01-01T14:32:55;4.90;;;2.63;;
16878;SDS011;8556;52.218;9.884;2023-01-01T14:35:22;6.83;;;3.47;;
16878;SDS011;8556;52.218;9.884;2023-01-01T14:37:49;5.67;;;2.57;;
16878;SDS011;8556;52.218;9.884;2023-01-01T14:40:17;5.93;;;3.23;;
16878;SDS011;8556;52.218;9.884;2023-01-01T14:42:51;7.23;;;3.33;;
16878;SDS011;8556;52.218;9.884;2023-01-01T14:45:23;4.90;;;3.10;;
16878;SDS011;8556;52.218;9.884;2023-01-01T14:47:51;6.33;;;3.17;;
16878;SDS011;8556;52.218;9.884;2023-01-01T14:50:21;4.47;;;2.90;;
16878;SDS011;8556;52.218;9.884;2023-01-01T14:52:52;6.20;;;2.50;;
16878;SDS011;8556;52.218;9.884;2023-01-01T14:55:23;5.73;;;2.90;;
16878;SDS011;8556;52.218;9.884;2023-01-01T14:57:54;4.30;;;2.47;;
16878;SDS011;8556;52.218;9.884;2023-01-01T15:00:25;9.13;;;3.57;;
16878;SDS011;8556;52.218;9.884;2023-01-01T15:02:53;3.00;;;2.33;;
16878;SDS011;8556;52.218;9.884;2023-01-01T15:05:29;4.50;;;2.40;;
16878;SDS011;8556;52.218;9.884;2023-01-01T15:07:58;6.67;;;2.80;;
16878;SDS011;8556;52.218;9.884;2023-01-01T15:10:26;8.87;;;2.70;;
16878;SDS011;8556;52.218;9.884;2023-01-01T15:12:55;7.67;;;4.67;;
16878;SDS011;8556;52.218;9.884;2023-01-01T15:15:37;12.70;;;6.17;;
16878;SDS011;8556;52.218;9.884;2023-01-01T15:18:14;9.73;;;5.80;;
16878;SDS011;8556;52.218;9.884;2023-01-01T15:21:05;13.23;;;5.60;;
16878;SDS011;8556;52.218;9.884;2023-01-01T15:23:36;11.07;;;5.53;;
16878;SDS011;8556;52.218;9.884;2023-01-01T15:26:06;8.33;;;5.43;;
16878;SDS011;8556;52.218;9.884;2023-01-01T15:28:34;8.07;;;4.27;;
16878;SDS011;8556;52.218;9.884;2023-01-01T15:31:04;7.40;;;4.93;;
16878;SDS011;8556;52.218;9.884;2023-01-01T15:33:31;8.30;;;3.97;;